createdAt,value
2023-10-06T00:02:30.956Z,14.37
2023-10-06T00:05:12.666Z,14.37
2023-10-06T00:07:42.044Z,14.29
2023-10-06T00:10:21.266Z,14.22
2023-10-06T00:12:51.431Z,14.19
2023-10-06T00:15:27.898Z,14.23
2023-10-06T00:18:08.424Z,13.84
2023-10-06T00:20:46.547Z,14.30
2023-10-06T00:23:16.095Z,14.20
2023-10-06T00:25:43.883Z,14.24
2023-10-06T00:28:27.209Z,14.28
2023-10-06T00:30:59.112Z,14.23
2023-10-06T00:33:35.630Z,14.17
2023-10-06T00:36:12.736Z,14.36
2023-10-06T00:38:44.170Z,14.34
2023-10-06T00:41:16.162Z,14.23
2023-10-06T00:43:45.869Z,14.34
2023-10-06T00:46:15.888Z,14.32
2023-10-06T00:48:46.126Z,14.41
2023-10-06T00:51:21.132Z,14.47
2023-10-06T00:53:53.025Z,14.54
2023-10-06T00:56:24.865Z,14.55
2023-10-06T00:58:54.800Z,14.57
2023-10-06T01:01:24.169Z,14.44
2023-10-06T01:04:03.168Z,14.56
2023-10-06T01:06:35.305Z,14.55
2023-10-06T01:09:14.690Z,14.59
2023-10-06T01:11:52.156Z,14.45
2023-10-06T01:14:30.465Z,14.54
2023-10-06T01:17:16.387Z,14.54
2023-10-06T01:19:54.559Z,14.54
2023-10-06T01:22:26.381Z,14.54
2023-10-06T01:24:54.734Z,14.58
2023-10-06T01:27:29.876Z,14.63
2023-10-06T01:30:16.578Z,14.52
2023-10-06T01:32:47.476Z,14.62
2023-10-06T01:35:22.134Z,14.49
2023-10-06T01:37:49.793Z,14.37
2023-10-06T01:40:26.491Z,14.42
2023-10-06T01:42:54.699Z,14.37
2023-10-06T01:45:23.180Z,14.48
2023-10-06T01:48:12.560Z,14.42
2023-10-06T01:50:41.158Z,14.39
2023-10-06T01:53:17.797Z,14.47
2023-10-06T01:55:52.174Z,14.39
2023-10-06T01:58:19.792Z,14.41
2023-10-06T02:00:50.925Z,14.29
2023-10-06T02:03:22.999Z,14.29
2023-10-06T02:06:01.202Z,14.34
2023-10-06T02:08:28.736Z,14.43
2023-10-06T02:10:57.108Z,14.36
2023-10-06T02:13:24.804Z,14.23
2023-10-06T02:16:02.500Z,14.23
2023-10-06T02:18:38.002Z,14.24
2023-10-06T02:21:13.281Z,14.23
2023-10-06T02:23:48.355Z,14.14
2023-10-06T02:26:22.964Z,14.32
2023-10-06T02:28:51.924Z,14.25
2023-10-06T02:31:23.489Z,14.23
2023-10-06T02:33:53.498Z,13.98
2023-10-06T02:36:24.622Z,14.15
2023-10-06T02:38:53.376Z,14.18
2023-10-06T02:41:30.977Z,14.11
2023-10-06T02:44:28.884Z,13.77
2023-10-06T02:46:57.346Z,14.03
2023-10-06T02:49:41.037Z,14.06
2023-10-06T02:52:21.270Z,14.15
2023-10-06T02:55:06.039Z,14.22
2023-10-06T02:57:37.496Z,14.08
2023-10-06T03:00:39.148Z,14.17
2023-10-06T03:03:14.008Z,14.06
2023-10-06T03:05:43.062Z,14.13
2023-10-06T03:08:12.868Z,14.09
2023-10-06T03:10:44.899Z,14.12
2023-10-06T03:13:25.161Z,13.96
2023-10-06T03:15:52.916Z,13.80
2023-10-06T03:18:22.222Z,13.86
2023-10-06T03:20:51.312Z,14.00
2023-10-06T03:23:29.685Z,13.94
2023-10-06T03:25:58.004Z,14.10
2023-10-06T03:28:38.099Z,13.98
2023-10-06T03:31:22.110Z,13.90
2023-10-06T03:33:56.954Z,13.91
2023-10-06T03:36:39.050Z,13.85
2023-10-06T03:39:09.331Z,13.94
2023-10-06T03:41:38.911Z,13.86
2023-10-06T03:44:06.889Z,13.91
2023-10-06T03:46:40.416Z,13.88
2023-10-06T03:49:09.589Z,13.92
2023-10-06T03:51:40.077Z,13.88
2023-10-06T03:54:11.694Z,13.90
2023-10-06T03:56:39.179Z,13.96
2023-10-06T03:59:14.440Z,13.95
2023-10-06T04:01:45.803Z,13.86
2023-10-06T04:04:19.240Z,14.05
2023-10-06T04:06:49.273Z,13.96
2023-10-06T04:09:30.228Z,13.92
2023-10-06T04:12:02.965Z,13.94
2023-10-06T04:14:33.267Z,13.97
2023-10-06T04:17:02.923Z,14.03
2023-10-06T04:19:32.191Z,13.94
2023-10-06T04:21:59.548Z,13.81
2023-10-06T04:24:30.882Z,13.87
2023-10-06T04:27:06.726Z,14.00
2023-10-06T04:29:38.392Z,13.92
2023-10-06T04:32:07.396Z,13.88
2023-10-06T04:34:38.254Z,13.84
2023-10-06T04:37:09.209Z,13.87
2023-10-06T04:39:40.029Z,14.05
2023-10-06T04:42:07.703Z,14.08
2023-10-06T04:44:35.993Z,13.84
2023-10-06T04:47:03.404Z,13.85
2023-10-06T04:49:32.437Z,13.96
2023-10-06T04:52:01.563Z,13.94
2023-10-06T04:54:29.262Z,14.00
2023-10-06T04:56:58.066Z,13.75
2023-10-06T04:59:25.766Z,13.92
2023-10-06T05:01:54.640Z,13.82
2023-10-06T05:04:24.462Z,13.74
2023-10-06T05:06:54.509Z,13.87
2023-10-06T05:09:22.679Z,13.77
2023-10-06T05:11:51.367Z,13.86
2023-10-06T05:14:19.058Z,13.77
2023-10-06T05:16:46.474Z,13.68
2023-10-06T05:19:14.699Z,13.65
2023-10-06T05:21:42.206Z,13.77
2023-10-06T05:24:17.773Z,13.81
2023-10-06T05:26:45.911Z,13.77
2023-10-06T05:29:15.830Z,13.86
2023-10-06T05:31:46.564Z,14.00
2023-10-06T05:34:25.277Z,14.08
2023-10-06T05:36:57.861Z,14.18
2023-10-06T05:39:26.603Z,14.40
2023-10-06T05:41:55.520Z,14.40
2023-10-06T05:44:25.723Z,14.54
2023-10-06T05:46:55.463Z,14.69
2023-10-06T05:49:23.367Z,14.76
2023-10-06T05:51:52.951Z,14.72
2023-10-06T05:54:25.201Z,14.85
2023-10-06T05:56:55.631Z,15.47
2023-10-06T05:59:58.293Z,16.51
2023-10-06T06:02:30.366Z,17.38
2023-10-06T06:05:38.468Z,18.84
2023-10-06T06:08:10.331Z,19.72
2023-10-06T06:11:03.583Z,19.96
2023-10-06T06:13:32.383Z,19.64
2023-10-06T06:16:02.735Z,18.71
2023-10-06T06:18:35.962Z,18.83
2023-10-06T06:21:04.610Z,17.93
2023-10-06T06:23:37.274Z,17.19
2023-10-06T06:26:05.570Z,16.38
2023-10-06T06:28:34.474Z,16.21
2023-10-06T06:31:06.519Z,16.20
2023-10-06T06:33:34.416Z,15.98
2023-10-06T06:36:02.362Z,16.21
2023-10-06T06:38:40.942Z,16.21
2023-10-06T06:41:11.151Z,16.42
2023-10-06T06:43:44.950Z,16.60
2023-10-06T06:46:14.651Z,16.65
2023-10-06T06:48:48.261Z,16.87
2023-10-06T06:51:18.500Z,17.15
2023-10-06T06:53:48.273Z,17.18
2023-10-06T06:56:18.563Z,17.58
2023-10-06T06:58:48.577Z,17.76
2023-10-06T07:01:18.753Z,18.08
2023-10-06T07:03:49.181Z,17.63
2023-10-06T07:06:19.038Z,17.64
2023-10-06T07:08:48.273Z,17.67
2023-10-06T07:11:21.140Z,17.72
2023-10-06T07:13:54.606Z,17.80
2023-10-06T07:16:28.343Z,18.26
2023-10-06T07:18:59.599Z,19.63
2023-10-06T07:21:30.794Z,20.00
2023-10-06T07:23:58.956Z,20.52
2023-10-06T07:26:32.431Z,20.59
2023-10-06T07:29:04.339Z,19.98
2023-10-06T07:31:35.841Z,20.66
2023-10-06T07:34:09.662Z,20.62
2023-10-06T07:36:43.974Z,21.50
2023-10-06T07:39:24.692Z,21.42
2023-10-06T07:41:57.091Z,21.10
2023-10-06T07:45:05.721Z,21.34
2023-10-06T07:51:59.802Z,19.84
2023-10-06T07:54:34.273Z,21.04
2023-10-06T07:57:44.732Z,21.30
2023-10-06T08:00:25.690Z,22.47
2023-10-06T08:03:03.069Z,23.53
2023-10-06T08:06:01.825Z,23.41
2023-10-06T08:08:31.928Z,22.99
2023-10-06T08:11:07.534Z,22.39
2023-10-06T08:13:38.459Z,23.07
2023-10-06T08:16:10.668Z,23.76
2023-10-06T08:18:41.261Z,24.73
2023-10-06T08:21:13.329Z,24.88
2023-10-06T08:23:44.827Z,25.54
2023-10-06T08:26:20.752Z,25.03
2023-10-06T08:28:48.577Z,25.61
2023-10-06T08:31:19.822Z,25.18
2023-10-06T08:33:49.918Z,24.60
2023-10-06T08:36:22.271Z,24.42
2023-10-06T08:38:53.840Z,24.11
2023-10-06T08:41:30.647Z,24.84
2023-10-06T08:44:04.532Z,23.79
2023-10-06T08:46:36.582Z,24.35
2023-10-06T08:49:09.008Z,24.08
2023-10-06T08:51:41.974Z,24.40
2023-10-06T08:54:14.959Z,24.39
2023-10-06T08:56:44.796Z,24.78
2023-10-06T08:59:19.005Z,24.79
2023-10-06T09:01:46.836Z,24.74
2023-10-06T09:04:16.252Z,24.69
2023-10-06T09:07:09.513Z,25.16
2023-10-06T09:09:37.768Z,25.52
2023-10-06T09:12:10.845Z,25.05
2023-10-06T09:14:58.199Z,24.76
2023-10-06T09:17:37.609Z,24.87
2023-10-06T09:20:28.319Z,25.01
2023-10-06T09:23:04.067Z,25.31
2023-10-06T09:25:49.598Z,25.25
2023-10-06T09:28:18.743Z,25.58
2023-10-06T09:31:00.462Z,24.36
2023-10-06T09:33:43.284Z,24.58
2023-10-06T09:36:32.036Z,24.54
2023-10-06T09:39:07.812Z,24.42
2023-10-06T09:41:37.839Z,24.95
2023-10-06T09:44:09.737Z,25.34
2023-10-06T09:46:43.024Z,24.84
2023-10-06T09:49:18.649Z,25.64
2023-10-06T09:51:48.419Z,25.84
2023-10-06T09:54:16.657Z,25.94
2023-10-06T09:56:48.296Z,26.23
2023-10-06T09:59:29.329Z,26.24
2023-10-06T10:01:59.303Z,25.14
2023-10-06T10:04:34.056Z,24.55
2023-10-06T10:07:07.022Z,24.38
2023-10-06T10:09:39.098Z,24.59
2023-10-06T10:12:31.622Z,23.28
2023-10-06T10:15:39.088Z,23.24
2023-10-06T10:18:40.657Z,24.72
2023-10-06T10:21:13.348Z,24.24
2023-10-06T10:23:45.951Z,24.57
2023-10-06T10:26:22.100Z,24.95
2023-10-06T10:29:22.527Z,25.83
2023-10-06T10:32:10.112Z,24.70
2023-10-06T10:35:15.224Z,24.02
2023-10-06T10:38:05.855Z,24.53
2023-10-06T10:40:49.067Z,25.77
2023-10-06T10:43:19.768Z,26.46
2023-10-06T10:45:49.312Z,26.74
2023-10-06T10:48:17.245Z,26.13
2023-10-06T10:50:57.606Z,26.53
2023-10-06T10:53:30.607Z,26.62
2023-10-06T10:56:05.059Z,26.56
2023-10-06T10:58:45.586Z,26.76
2023-10-06T11:01:31.619Z,26.37
2023-10-06T11:04:32.694Z,26.39
2023-10-06T11:07:13.323Z,25.82
2023-10-06T11:09:42.235Z,25.64
2023-10-06T11:12:24.786Z,25.87
2023-10-06T11:15:16.912Z,25.58
2023-10-06T11:17:47.225Z,24.58
2023-10-06T11:23:13.036Z,25.34
2023-10-06T11:25:51.693Z,25.68
2023-10-06T11:28:21.340Z,25.75
2023-10-06T11:30:51.931Z,25.40
2023-10-06T11:33:24.266Z,25.21
2023-10-06T11:35:55.587Z,25.11
2023-10-06T11:38:25.509Z,25.07
2023-10-06T11:40:53.322Z,25.57
2023-10-06T11:43:23.013Z,26.32
2023-10-06T11:46:03.996Z,26.62
2023-10-06T11:48:37.345Z,25.80
2023-10-06T11:51:11.574Z,25.49
2023-10-06T11:53:41.957Z,25.53
2023-10-06T11:56:12.535Z,24.76
2023-10-06T11:58:42.318Z,24.93
2023-10-06T12:01:38.437Z,24.67
2023-10-06T12:04:24.195Z,24.33
2023-10-06T12:06:53.160Z,23.70
2023-10-06T12:09:27.428Z,23.98
2023-10-06T12:11:57.267Z,24.17
2023-10-06T12:14:27.969Z,23.71
2023-10-06T12:16:56.351Z,23.46
2023-10-06T12:19:27.309Z,23.43
2023-10-06T12:21:57.309Z,23.48
2023-10-06T12:24:33.355Z,24.12
2023-10-06T12:27:03.901Z,24.21
2023-10-06T12:29:33.346Z,24.19
2023-10-06T12:32:03.746Z,24.27
2023-10-06T12:34:34.704Z,24.10
2023-10-06T12:37:03.621Z,25.05
2023-10-06T12:39:37.290Z,24.85
2023-10-06T12:42:06.627Z,25.22
2023-10-06T12:44:41.273Z,25.08
2023-10-06T12:47:12.500Z,25.19
2023-10-06T12:49:48.065Z,25.58
2023-10-06T12:52:17.290Z,25.72
2023-10-06T12:54:45.787Z,26.07
2023-10-06T12:57:13.914Z,26.23
2023-10-06T12:59:43.212Z,25.92
2023-10-06T13:02:10.740Z,25.67
2023-10-06T13:04:44.471Z,26.39
2023-10-06T13:07:38.504Z,25.55
2023-10-06T13:10:11.036Z,25.47
2023-10-06T13:12:42.984Z,25.11
2023-10-06T13:15:14.355Z,25.19
2023-10-06T13:17:43.543Z,24.73
2023-10-06T13:20:17.714Z,25.12
2023-10-06T13:22:48.921Z,25.03
2023-10-06T13:25:22.805Z,25.05
2023-10-06T13:27:52.516Z,25.30
2023-10-06T13:30:21.776Z,24.89
2023-10-06T13:32:53.333Z,24.98
2023-10-06T13:35:21.946Z,25.09
2023-10-06T13:37:56.044Z,24.77
2023-10-06T13:40:24.013Z,25.42
2023-10-06T13:42:53.691Z,24.90
2023-10-06T13:45:25.667Z,25.14
2023-10-06T13:50:53.931Z,25.51
2023-10-06T13:53:23.182Z,24.93
2023-10-06T13:55:52.371Z,25.06
2023-10-06T13:58:20.722Z,24.62
2023-10-06T14:00:49.041Z,24.94
2023-10-06T14:03:18.712Z,24.65
2023-10-06T14:05:57.337Z,24.54
2023-10-06T14:08:30.619Z,25.20
2023-10-06T14:11:02.962Z,25.29
2023-10-06T14:13:36.174Z,24.76
2023-10-06T14:16:19.926Z,25.29
2023-10-06T14:18:48.980Z,25.30
2023-10-06T14:21:37.643Z,25.39
2023-10-06T14:24:12.081Z,25.37
2023-10-06T14:26:42.134Z,25.44
2023-10-06T14:29:11.327Z,24.68
2023-10-06T14:31:49.290Z,25.06
2023-10-06T14:34:37.891Z,25.12
2023-10-06T14:37:26.651Z,25.16
2023-10-06T14:40:13.877Z,24.80
2023-10-06T14:43:07.821Z,24.64
2023-10-06T14:45:54.512Z,24.81
2023-10-06T14:48:28.634Z,24.84
2023-10-06T14:51:00.990Z,24.79
2023-10-06T14:53:31.837Z,24.55
2023-10-06T14:56:02.233Z,24.56
2023-10-06T14:58:31.767Z,24.49
2023-10-06T15:01:08.549Z,24.53
2023-10-06T15:03:40.285Z,24.33
2023-10-06T15:06:11.475Z,24.23
2023-10-06T15:08:40.044Z,24.41
2023-10-06T15:11:15.189Z,24.26
2023-10-06T15:13:43.064Z,23.97
2023-10-06T15:16:15.258Z,23.78
2023-10-06T15:18:47.461Z,24.01
2023-10-06T15:21:18.394Z,23.77
2023-10-06T15:23:54.673Z,23.61
2023-10-06T15:26:27.457Z,23.33
2023-10-06T15:28:56.810Z,23.21
2023-10-06T15:31:29.952Z,23.26
2023-10-06T15:33:59.072Z,23.12
2023-10-06T15:36:28.476Z,22.73
2023-10-06T15:39:04.179Z,22.80
2023-10-06T15:41:32.715Z,22.93
2023-10-06T15:44:04.887Z,22.78
2023-10-06T15:46:33.676Z,23.01
2023-10-06T15:49:01.539Z,22.60
2023-10-06T15:51:30.637Z,22.27
2023-10-06T15:56:26.562Z,21.81
2023-10-06T15:59:01.841Z,21.66
2023-10-06T16:01:29.918Z,21.65
2023-10-06T16:03:59.534Z,21.56
2023-10-06T16:06:27.473Z,21.33
2023-10-06T16:08:56.777Z,21.36
2023-10-06T16:11:29.627Z,21.65
2023-10-06T16:13:58.353Z,21.27
2023-10-06T16:16:27.172Z,21.02
2023-10-06T16:18:54.938Z,20.87
2023-10-06T16:21:22.395Z,21.51
2023-10-06T16:23:53.570Z,21.64
2023-10-06T16:26:21.148Z,21.63
2023-10-06T16:28:50.264Z,21.60
2023-10-06T16:31:49.865Z,21.61
2023-10-06T16:34:22.874Z,21.56
2023-10-06T16:36:50.543Z,20.99
2023-10-06T16:39:23.204Z,20.46
2023-10-06T16:41:51.608Z,20.74
2023-10-06T16:44:24.528Z,21.24
2023-10-06T16:46:52.330Z,21.22
2023-10-06T16:49:20.200Z,20.80
2023-10-06T16:52:05.402Z,20.69
2023-10-06T16:54:45.245Z,20.69
2023-10-06T16:57:13.199Z,20.50
2023-10-06T16:59:59.528Z,20.75
2023-10-06T17:02:27.856Z,20.73
2023-10-06T17:05:05.836Z,20.50
2023-10-06T17:07:40.227Z,20.31
2023-10-06T17:10:13.758Z,20.48
2023-10-06T17:12:41.618Z,20.33
2023-10-06T17:15:11.824Z,20.34
2023-10-06T17:17:45.536Z,20.42
2023-10-06T17:20:22.720Z,20.55
2023-10-06T17:22:50.407Z,20.37
2023-10-06T17:25:18.263Z,20.47
2023-10-06T17:27:48.240Z,20.05
2023-10-06T17:30:19.989Z,20.11
2023-10-06T17:33:20.775Z,18.79
2023-10-06T17:35:55.432Z,18.09
2023-10-06T17:38:31.073Z,17.62
2023-10-06T17:41:24.564Z,17.38
2023-10-06T17:43:58.492Z,17.06
2023-10-06T17:46:29.984Z,16.90
2023-10-06T17:49:08.308Z,16.69
2023-10-06T17:55:20.014Z,16.01
2023-10-06T17:57:53.371Z,15.71
2023-10-06T18:00:24.641Z,16.14
2023-10-06T18:05:59.559Z,16.04
2023-10-06T18:45:59.543Z,15.07
2023-10-06T18:48:47.358Z,15.24
2023-10-06T18:51:42.480Z,15.15
2023-10-06T18:54:33.080Z,15.07
2023-10-06T20:27:00.257Z,13.71
2023-10-06T20:35:19.808Z,14.04
2023-10-06T20:37:50.347Z,13.97
2023-10-06T20:40:39.991Z,13.98
2023-10-06T20:43:40.156Z,13.87
2023-10-06T20:46:51.955Z,13.95
2023-10-06T20:49:45.411Z,13.85
2023-10-06T20:52:22.359Z,13.89
2023-10-06T20:58:40.974Z,13.93
2023-10-06T21:01:31.386Z,13.85
2023-10-06T21:04:09.475Z,13.90
2023-10-06T21:06:52.896Z,13.86
2023-10-06T21:09:34.672Z,13.73
2023-10-06T21:12:39.476Z,13.86
2023-10-06T21:15:15.920Z,13.76
2023-10-06T21:18:09.974Z,13.69
2023-10-06T21:20:47.716Z,13.63
2023-10-06T21:23:35.820Z,13.64
2023-10-06T21:26:15.339Z,13.57
2023-10-06T21:28:55.621Z,13.52
2023-10-06T21:31:31.904Z,13.54
2023-10-06T21:34:09.496Z,13.43
2023-10-06T21:37:03.433Z,13.48
2023-10-06T21:40:06.937Z,13.52
2023-10-06T21:42:36.789Z,13.45
2023-10-06T21:45:10.874Z,13.39
2023-10-06T21:47:39.530Z,13.43
2023-10-06T21:50:11.439Z,13.43
2023-10-06T21:52:41.992Z,13.38
2023-10-06T21:55:12.544Z,13.44
2023-10-06T21:57:42.091Z,13.48
2023-10-06T22:00:27.089Z,13.39
2023-10-06T22:03:03.418Z,13.47
2023-10-06T22:08:35.252Z,13.41
2023-10-06T22:11:13.214Z,13.36
2023-10-06T22:14:10.540Z,13.32
2023-10-06T22:16:43.320Z,13.12
2023-10-06T22:19:12.544Z,13.41
2023-10-06T22:21:44.192Z,13.42
2023-10-06T22:24:16.760Z,13.38
2023-10-06T22:26:49.867Z,13.31
2023-10-06T22:29:17.975Z,13.34
2023-10-06T22:31:55.972Z,13.35
2023-10-06T22:34:25.054Z,13.44
2023-10-06T22:37:45.558Z,13.44
2023-10-06T22:40:20.101Z,13.35
2023-10-06T22:43:19.360Z,13.34
2023-10-06T22:46:02.111Z,12.80
2023-10-06T22:56:08.927Z,13.36
2023-10-06T22:58:39.979Z,13.35
2023-10-06T23:04:17.325Z,14.80
2023-10-06T23:06:48.824Z,15.44
2023-10-06T23:09:43.817Z,15.45
2023-10-06T23:12:22.605Z,14.53
2023-10-06T23:14:58.351Z,14.23
2023-10-06T23:17:33.943Z,14.07
2023-10-06T23:20:28.036Z,13.90
2023-10-06T23:23:02.809Z,13.73
2023-10-06T23:25:59.686Z,13.36
2023-10-06T23:28:34.270Z,13.34
2023-10-06T23:31:05.324Z,13.35
2023-10-06T23:33:50.368Z,13.25
2023-10-06T23:36:51.955Z,13.16
2023-10-06T23:39:30.978Z,13.06
2023-10-06T23:41:58.739Z,13.07
2023-10-06T23:44:35.203Z,12.94
2023-10-06T23:47:12.897Z,12.95
2023-10-06T23:49:43.318Z,12.50
2023-10-06T23:52:45.215Z,12.87
2023-10-06T23:55:17.556Z,12.92
2023-10-06T23:57:52.829Z,12.88
